sensor_id;sensor_type;location;lat;lon;timestamp;temperature;humidity
61021;DHT22;66055;43.496;3.710;2022-12-18T00:01:36;1.70;89.10
61021;DHT22;66055;43.496;3.710;2022-12-18T00:04:04;1.70;89.30
61021;DHT22;66055;43.496;3.710;2022-12-18T00:06:32;1.70;89.50
61021;DHT22;66055;43.496;3.710;2022-12-18T00:08:59;1.70;89.50
61021;DHT22;66055;43.496;3.710;2022-12-18T00:11:27;1.40;88.00
61021;DHT22;66055;43.496;3.710;2022-12-18T00:13:55;1.40;87.80
61021;DHT22;66055;43.496;3.710;2022-12-18T00:16:22;1.40;88.50
61021;DHT22;66055;43.496;3.710;2022-12-18T00:18:49;1.50;88.70
61021;DHT22;66055;43.496;3.710;2022-12-18T00:21:18;1.50;89.10
61021;DHT22;66055;43.496;3.710;2022-12-18T00:23:45;1.50;89.40
61021;DHT22;66055;43.496;3.710;2022-12-18T00:26:14;1.50;89.50
61021;DHT22;66055;43.496;3.710;2022-12-18T00:28:41;1.50;89.70
61021;DHT22;66055;43.496;3.710;2022-12-18T00:31:08;1.50;90.00
61021;DHT22;66055;43.496;3.710;2022-12-18T00:33:35;1.50;90.20
61021;DHT22;66055;43.496;3.710;2022-12-18T00:36:06;1.50;90.40
61021;DHT22;66055;43.496;3.710;2022-12-18T00:38:33;1.50;90.60
61021;DHT22;66055;43.496;3.710;2022-12-18T00:40:59;1.50;90.70
61021;DHT22;66055;43.496;3.710;2022-12-18T00:43:25;1.50;90.80
61021;DHT22;66055;43.496;3.710;2022-12-18T00:45:51;1.50;90.80
61021;DHT22;66055;43.496;3.710;2022-12-18T00:48:17;1.50;90.80
61021;DHT22;66055;43.496;3.710;2022-12-18T00:50:42;1.50;90.80
61021;DHT22;66055;43.496;3.710;2022-12-18T00:53:08;1.50;90.80
61021;DHT22;66055;43.496;3.710;2022-12-18T00:55:34;1.50;90.90
61021;DHT22;66055;43.496;3.710;2022-12-18T00:57:59;1.50;90.90
61021;DHT22;66055;43.496;3.710;2022-12-18T01:00:25;1.40;91.00
61021;DHT22;66055;43.496;3.710;2022-12-18T01:02:51;1.50;91.00
61021;DHT22;66055;43.496;3.710;2022-12-18T01:05:16;1.50;91.00
61021;DHT22;66055;43.496;3.710;2022-12-18T01:07:42;1.50;91.10
61021;DHT22;66055;43.496;3.710;2022-12-18T01:10:12;1.50;91.10
61021;DHT22;66055;43.496;3.710;2022-12-18T01:12:38;1.40;91.10
61021;DHT22;66055;43.496;3.710;2022-12-18T01:15:05;1.40;91.20
61021;DHT22;66055;43.496;3.710;2022-12-18T01:17:31;1.40;91.20
61021;DHT22;66055;43.496;3.710;2022-12-18T01:19:57;1.40;91.20
61021;DHT22;66055;43.496;3.710;2022-12-18T01:22:22;1.40;91.00
61021;DHT22;66055;43.496;3.710;2022-12-18T01:24:48;1.30;90.90
61021;DHT22;66055;43.496;3.710;2022-12-18T01:27:14;1.40;90.90
61021;DHT22;66055;43.496;3.710;2022-12-18T01:29:39;1.50;90.80
61021;DHT22;66055;43.496;3.710;2022-12-18T01:32:05;1.50;90.90
61021;DHT22;66055;43.496;3.710;2022-12-18T01:34:31;1.50;90.80
61021;DHT22;66055;43.496;3.710;2022-12-18T01:36:57;1.60;90.80
61021;DHT22;66055;43.496;3.710;2022-12-18T01:39:24;1.50;90.70
61021;DHT22;66055;43.496;3.710;2022-12-18T01:41:49;1.60;90.60
61021;DHT22;66055;43.496;3.710;2022-12-18T01:45:04;1.60;90.50
61021;DHT22;66055;43.496;3.710;2022-12-18T01:47:40;1.60;90.40
61021;DHT22;66055;43.496;3.710;2022-12-18T01:52:43;1.70;90.10
61021;DHT22;66055;43.496;3.710;2022-12-18T01:55:11;1.80;90.10
61021;DHT22;66055;43.496;3.710;2022-12-18T01:57:38;1.80;89.90
61021;DHT22;66055;43.496;3.710;2022-12-18T02:00:17;1.80;89.80
61021;DHT22;66055;43.496;3.710;2022-12-18T02:02:44;1.80;89.60
61021;DHT22;66055;43.496;3.710;2022-12-18T02:05:12;1.70;89.40
61021;DHT22;66055;43.496;3.710;2022-12-18T02:10:31;1.70;88.90
61021;DHT22;66055;43.496;3.710;2022-12-18T02:13:20;1.70;88.80
61021;DHT22;66055;43.496;3.710;2022-12-18T02:18:36;1.70;88.90
61021;DHT22;66055;43.496;3.710;2022-12-18T02:24:04;1.80;88.30
61021;DHT22;66055;43.496;3.710;2022-12-18T02:26:55;1.80;88.60
61021;DHT22;66055;43.496;3.710;2022-12-18T02:32:14;1.70;88.70
61021;DHT22;66055;43.496;3.710;2022-12-18T02:34:41;1.70;88.50
61021;DHT22;66055;43.496;3.710;2022-12-18T02:37:12;1.70;88.80
61021;DHT22;66055;43.496;3.710;2022-12-18T02:39:41;1.70;89.10
61021;DHT22;66055;43.496;3.710;2022-12-18T02:42:08;1.70;89.10
61021;DHT22;66055;43.496;3.710;2022-12-18T02:44:35;1.70;89.10
61021;DHT22;66055;43.496;3.710;2022-12-18T02:47:13;1.70;89.00
61021;DHT22;66055;43.496;3.710;2022-12-18T02:57:56;1.60;87.10
61021;DHT22;66055;43.496;3.710;2022-12-18T03:00:30;1.60;87.60
61021;DHT22;66055;43.496;3.710;2022-12-18T03:03:14;1.60;87.70
61021;DHT22;66055;43.496;3.710;2022-12-18T03:05:53;1.60;88.30
61021;DHT22;66055;43.496;3.710;2022-12-18T03:08:34;1.50;88.30
61021;DHT22;66055;43.496;3.710;2022-12-18T03:11:07;1.50;88.00
61021;DHT22;66055;43.496;3.710;2022-12-18T03:16:07;1.50;88.00
61021;DHT22;66055;43.496;3.710;2022-12-18T03:21:03;1.50;88.30
61021;DHT22;66055;43.496;3.710;2022-12-18T03:23:34;1.50;88.60
61021;DHT22;66055;43.496;3.710;2022-12-18T03:26:04;1.50;89.00
61021;DHT22;66055;43.496;3.710;2022-12-18T03:28:35;1.50;89.10
61021;DHT22;66055;43.496;3.710;2022-12-18T03:31:04;1.40;88.70
61021;DHT22;66055;43.496;3.710;2022-12-18T03:33:51;1.40;88.70
61021;DHT22;66055;43.496;3.710;2022-12-18T03:36:17;1.40;88.80
61021;DHT22;66055;43.496;3.710;2022-12-18T03:38:44;1.50;88.70
61021;DHT22;66055;43.496;3.710;2022-12-18T03:43:55;1.40;88.30
61021;DHT22;66055;43.496;3.710;2022-12-18T03:46:44;1.40;88.40
61021;DHT22;66055;43.496;3.710;2022-12-18T03:49:18;1.40;88.70
61021;DHT22;66055;43.496;3.710;2022-12-18T03:52:03;1.40;88.70
61021;DHT22;66055;43.496;3.710;2022-12-18T03:54:30;1.40;88.70
61021;DHT22;66055;43.496;3.710;2022-12-18T03:57:05;1.40;88.90
61021;DHT22;66055;43.496;3.710;2022-12-18T03:59:33;1.50;89.10
61021;DHT22;66055;43.496;3.710;2022-12-18T04:02:01;1.40;89.30
61021;DHT22;66055;43.496;3.710;2022-12-18T04:04:28;1.50;89.30
61021;DHT22;66055;43.496;3.710;2022-12-18T04:06:55;1.50;89.20
61021;DHT22;66055;43.496;3.710;2022-12-18T04:09:21;1.50;88.80
61021;DHT22;66055;43.496;3.710;2022-12-18T04:11:47;1.50;88.40
61021;DHT22;66055;43.496;3.710;2022-12-18T04:14:13;1.50;88.20
61021;DHT22;66055;43.496;3.710;2022-12-18T04:16:39;1.50;88.40
61021;DHT22;66055;43.496;3.710;2022-12-18T04:19:05;1.60;88.50
61021;DHT22;66055;43.496;3.710;2022-12-18T04:21:30;1.60;88.50
61021;DHT22;66055;43.496;3.710;2022-12-18T04:23:56;1.60;88.40
61021;DHT22;66055;43.496;3.710;2022-12-18T04:26:22;1.60;88.40
61021;DHT22;66055;43.496;3.710;2022-12-18T04:28:47;1.70;88.30
61021;DHT22;66055;43.496;3.710;2022-12-18T04:31:13;1.60;88.10
61021;DHT22;66055;43.496;3.710;2022-12-18T04:33:39;1.60;87.60
61021;DHT22;66055;43.496;3.710;2022-12-18T04:36:05;1.60;86.90
61021;DHT22;66055;43.496;3.710;2022-12-18T04:38:30;1.60;87.40
61021;DHT22;66055;43.496;3.710;2022-12-18T04:40:56;1.60;87.10
61021;DHT22;66055;43.496;3.710;2022-12-18T04:43:22;1.60;87.00
61021;DHT22;66055;43.496;3.710;2022-12-18T04:45:47;1.60;86.90
61021;DHT22;66055;43.496;3.710;2022-12-18T04:48:13;1.60;86.20
61021;DHT22;66055;43.496;3.710;2022-12-18T04:50:39;1.60;86.60
61021;DHT22;66055;43.496;3.710;2022-12-18T04:53:04;1.50;86.90
61021;DHT22;66055;43.496;3.710;2022-12-18T04:55:30;1.50;86.70
61021;DHT22;66055;43.496;3.710;2022-12-18T04:57:56;1.60;86.40
61021;DHT22;66055;43.496;3.710;2022-12-18T05:00:22;1.50;85.90
61021;DHT22;66055;43.496;3.710;2022-12-18T05:02:48;1.50;86.10
61021;DHT22;66055;43.496;3.710;2022-12-18T05:05:14;1.50;86.20
61021;DHT22;66055;43.496;3.710;2022-12-18T05:07:39;1.50;86.20
61021;DHT22;66055;43.496;3.710;2022-12-18T05:10:05;1.50;86.30
61021;DHT22;66055;43.496;3.710;2022-12-18T05:12:32;1.50;86.10
61021;DHT22;66055;43.496;3.710;2022-12-18T05:14:58;1.50;85.70
61021;DHT22;66055;43.496;3.710;2022-12-18T05:17:24;1.50;86.50
61021;DHT22;66055;43.496;3.710;2022-12-18T05:19:49;1.50;87.40
61021;DHT22;66055;43.496;3.710;2022-12-18T05:22:15;1.50;87.50
61021;DHT22;66055;43.496;3.710;2022-12-18T05:24:41;1.50;87.50
61021;DHT22;66055;43.496;3.710;2022-12-18T05:27:07;1.40;86.70
61021;DHT22;66055;43.496;3.710;2022-12-18T05:29:32;1.40;86.20
61021;DHT22;66055;43.496;3.710;2022-12-18T05:31:58;1.40;85.90
61021;DHT22;66055;43.496;3.710;2022-12-18T05:34:24;1.40;86.70
61021;DHT22;66055;43.496;3.710;2022-12-18T05:36:50;1.50;87.50
61021;DHT22;66055;43.496;3.710;2022-12-18T05:39:15;1.50;87.40
61021;DHT22;66055;43.496;3.710;2022-12-18T05:41:41;1.50;87.00
61021;DHT22;66055;43.496;3.710;2022-12-18T05:44:07;1.50;86.50
61021;DHT22;66055;43.496;3.710;2022-12-18T05:46:32;1.40;85.70
61021;DHT22;66055;43.496;3.710;2022-12-18T05:49:01;1.30;86.40
61021;DHT22;66055;43.496;3.710;2022-12-18T05:51:27;1.30;86.30
61021;DHT22;66055;43.496;3.710;2022-12-18T05:53:53;1.30;85.90
61021;DHT22;66055;43.496;3.710;2022-12-18T05:56:20;1.20;85.90
61021;DHT22;66055;43.496;3.710;2022-12-18T05:58:47;1.20;86.00
61021;DHT22;66055;43.496;3.710;2022-12-18T06:03:38;1.10;86.60
61021;DHT22;66055;43.496;3.710;2022-12-18T06:06:12;1.20;86.50
61021;DHT22;66055;43.496;3.710;2022-12-18T06:08:37;1.10;86.30
61021;DHT22;66055;43.496;3.710;2022-12-18T06:11:03;1.20;86.80
61021;DHT22;66055;43.496;3.710;2022-12-18T06:13:29;1.20;86.20
61021;DHT22;66055;43.496;3.710;2022-12-18T06:15:54;1.20;86.50
61021;DHT22;66055;43.496;3.710;2022-12-18T06:18:20;1.20;86.40
61021;DHT22;66055;43.496;3.710;2022-12-18T06:20:54;1.20;86.30
61021;DHT22;66055;43.496;3.710;2022-12-18T06:23:21;1.30;85.50
61021;DHT22;66055;43.496;3.710;2022-12-18T06:25:46;1.40;85.50
61021;DHT22;66055;43.496;3.710;2022-12-18T06:28:12;1.40;86.40
61021;DHT22;66055;43.496;3.710;2022-12-18T06:30:38;1.50;86.90
61021;DHT22;66055;43.496;3.710;2022-12-18T06:33:03;1.50;87.20
61021;DHT22;66055;43.496;3.710;2022-12-18T06:35:29;1.60;87.00
61021;DHT22;66055;43.496;3.710;2022-12-18T06:37:55;1.60;86.30
61021;DHT22;66055;43.496;3.710;2022-12-18T06:40:20;1.70;85.90
61021;DHT22;66055;43.496;3.710;2022-12-18T06:42:46;1.70;85.30
61021;DHT22;66055;43.496;3.710;2022-12-18T06:45:12;1.80;85.20
61021;DHT22;66055;43.496;3.710;2022-12-18T06:47:37;1.80;84.80
61021;DHT22;66055;43.496;3.710;2022-12-18T06:50:03;1.90;84.90
61021;DHT22;66055;43.496;3.710;2022-12-18T06:52:32;1.90;85.60
61021;DHT22;66055;43.496;3.710;2022-12-18T06:54:58;1.90;85.40
61021;DHT22;66055;43.496;3.710;2022-12-18T06:57:23;2.00;85.90
61021;DHT22;66055;43.496;3.710;2022-12-18T06:59:49;2.00;85.70
61021;DHT22;66055;43.496;3.710;2022-12-18T07:02:15;2.00;85.00
61021;DHT22;66055;43.496;3.710;2022-12-18T07:04:40;2.10;84.00
61021;DHT22;66055;43.496;3.710;2022-12-18T07:07:06;2.10;83.60
61021;DHT22;66055;43.496;3.710;2022-12-18T07:09:32;2.10;81.90
61021;DHT22;66055;43.496;3.710;2022-12-18T07:11:57;2.10;83.90
61021;DHT22;66055;43.496;3.710;2022-12-18T07:14:23;2.20;84.90
61021;DHT22;66055;43.496;3.710;2022-12-18T07:16:49;2.20;85.00
61021;DHT22;66055;43.496;3.710;2022-12-18T07:19:14;2.20;85.00
61021;DHT22;66055;43.496;3.710;2022-12-18T07:21:40;2.20;85.80
61021;DHT22;66055;43.496;3.710;2022-12-18T07:24:06;2.20;85.80
61021;DHT22;66055;43.496;3.710;2022-12-18T07:26:32;2.20;85.70
61021;DHT22;66055;43.496;3.710;2022-12-18T07:28:58;2.30;84.70
61021;DHT22;66055;43.496;3.710;2022-12-18T07:31:24;2.30;83.20
61021;DHT22;66055;43.496;3.710;2022-12-18T07:33:51;2.40;83.10
61021;DHT22;66055;43.496;3.710;2022-12-18T07:36:17;2.40;82.10
61021;DHT22;66055;43.496;3.710;2022-12-18T07:38:43;2.50;81.80
61021;DHT22;66055;43.496;3.710;2022-12-18T07:41:13;2.50;81.30
61021;DHT22;66055;43.496;3.710;2022-12-18T07:43:40;2.60;82.30
61021;DHT22;66055;43.496;3.710;2022-12-18T07:46:07;2.70;84.00
61021;DHT22;66055;43.496;3.710;2022-12-18T07:48:33;2.70;83.90
61021;DHT22;66055;43.496;3.710;2022-12-18T07:51:04;2.80;84.00
61021;DHT22;66055;43.496;3.710;2022-12-18T07:53:30;2.90;83.00
61021;DHT22;66055;43.496;3.710;2022-12-18T07:55:57;3.00;81.50
61021;DHT22;66055;43.496;3.710;2022-12-18T07:58:23;3.20;80.70
61021;DHT22;66055;43.496;3.710;2022-12-18T08:00:49;3.20;81.50
61021;DHT22;66055;43.496;3.710;2022-12-18T08:03:15;3.20;82.30
61021;DHT22;66055;43.496;3.710;2022-12-18T08:05:40;3.30;80.70
61021;DHT22;66055;43.496;3.710;2022-12-18T08:08:06;3.30;81.00
61021;DHT22;66055;43.496;3.710;2022-12-18T08:10:32;3.40;80.60
61021;DHT22;66055;43.496;3.710;2022-12-18T08:12:57;3.40;80.70
61021;DHT22;66055;43.496;3.710;2022-12-18T08:15:23;3.40;81.50
61021;DHT22;66055;43.496;3.710;2022-12-18T08:17:49;3.50;81.20
61021;DHT22;66055;43.496;3.710;2022-12-18T08:20:15;3.50;80.90
61021;DHT22;66055;43.496;3.710;2022-12-18T08:22:41;3.50;81.30
61021;DHT22;66055;43.496;3.710;2022-12-18T08:25:07;3.50;81.20
61021;DHT22;66055;43.496;3.710;2022-12-18T08:27:33;3.50;81.80
61021;DHT22;66055;43.496;3.710;2022-12-18T08:29:59;3.60;79.60
61021;DHT22;66055;43.496;3.710;2022-12-18T08:32:26;3.60;78.80
61021;DHT22;66055;43.496;3.710;2022-12-18T08:34:52;3.60;78.90
61021;DHT22;66055;43.496;3.710;2022-12-18T08:37:18;3.70;79.50
61021;DHT22;66055;43.496;3.710;2022-12-18T08:39:44;3.70;79.90
61021;DHT22;66055;43.496;3.710;2022-12-18T08:42:10;3.60;79.70
61021;DHT22;66055;43.496;3.710;2022-12-18T08:44:54;3.70;79.50
61021;DHT22;66055;43.496;3.710;2022-12-18T08:47:20;3.70;80.20
61021;DHT22;66055;43.496;3.710;2022-12-18T08:49:45;3.70;79.20
61021;DHT22;66055;43.496;3.710;2022-12-18T08:52:11;3.80;79.00
61021;DHT22;66055;43.496;3.710;2022-12-18T08:54:37;3.80;80.00
61021;DHT22;66055;43.496;3.710;2022-12-18T08:57:02;3.80;79.80
61021;DHT22;66055;43.496;3.710;2022-12-18T08:59:28;3.90;78.60
61021;DHT22;66055;43.496;3.710;2022-12-18T09:01:54;3.90;79.90
61021;DHT22;66055;43.496;3.710;2022-12-18T09:04:20;3.90;79.00
61021;DHT22;66055;43.496;3.710;2022-12-18T09:06:46;3.90;79.80
61021;DHT22;66055;43.496;3.710;2022-12-18T09:09:12;3.90;80.20
61021;DHT22;66055;43.496;3.710;2022-12-18T09:11:38;3.90;78.80
61021;DHT22;66055;43.496;3.710;2022-12-18T09:14:04;3.90;80.30
61021;DHT22;66055;43.496;3.710;2022-12-18T09:16:30;4.00;81.00
61021;DHT22;66055;43.496;3.710;2022-12-18T09:18:58;4.00;78.40
61021;DHT22;66055;43.496;3.710;2022-12-18T09:21:29;4.10;81.50
61021;DHT22;66055;43.496;3.710;2022-12-18T09:23:56;4.10;79.80
61021;DHT22;66055;43.496;3.710;2022-12-18T09:26:23;4.10;80.10
61021;DHT22;66055;43.496;3.710;2022-12-18T09:28:49;4.10;79.30
61021;DHT22;66055;43.496;3.710;2022-12-18T09:31:16;4.10;81.10
61021;DHT22;66055;43.496;3.710;2022-12-18T09:33:42;4.10;79.60
61021;DHT22;66055;43.496;3.710;2022-12-18T09:36:09;4.10;79.90
61021;DHT22;66055;43.496;3.710;2022-12-18T09:38:36;4.10;79.00
61021;DHT22;66055;43.496;3.710;2022-12-18T09:41:17;4.20;79.40
61021;DHT22;66055;43.496;3.710;2022-12-18T09:43:55;4.10;80.00
61021;DHT22;66055;43.496;3.710;2022-12-18T09:46:32;4.20;81.30
61021;DHT22;66055;43.496;3.710;2022-12-18T09:49:02;4.20;79.00
61021;DHT22;66055;43.496;3.710;2022-12-18T09:51:37;4.30;78.80
61021;DHT22;66055;43.496;3.710;2022-12-18T09:54:06;4.40;78.80
61021;DHT22;66055;43.496;3.710;2022-12-18T09:56:36;4.40;79.70
61021;DHT22;66055;43.496;3.710;2022-12-18T09:59:04;4.50;80.50
61021;DHT22;66055;43.496;3.710;2022-12-18T10:01:31;4.50;80.10
61021;DHT22;66055;43.496;3.710;2022-12-18T10:03:58;4.50;81.80
61021;DHT22;66055;43.496;3.710;2022-12-18T10:09:01;4.40;79.90
61021;DHT22;66055;43.496;3.710;2022-12-18T10:14:40;4.40;81.10
61021;DHT22;66055;43.496;3.710;2022-12-18T10:17:26;4.50;81.30
61021;DHT22;66055;43.496;3.710;2022-12-18T10:20:01;4.50;80.00
61021;DHT22;66055;43.496;3.710;2022-12-18T10:27:44;4.80;81.00
61021;DHT22;66055;43.496;3.710;2022-12-18T10:30:17;4.90;82.20
61021;DHT22;66055;43.496;3.710;2022-12-18T10:32:43;4.90;81.90
61021;DHT22;66055;43.496;3.710;2022-12-18T10:35:19;4.90;80.50
61021;DHT22;66055;43.496;3.710;2022-12-18T10:43:29;5.00;79.30
61021;DHT22;66055;43.496;3.710;2022-12-18T10:49:00;5.20;79.50
61021;DHT22;66055;43.496;3.710;2022-12-18T10:51:29;5.30;79.40
61021;DHT22;66055;43.496;3.710;2022-12-18T10:54:13;5.30;79.60
61021;DHT22;66055;43.496;3.710;2022-12-18T10:56:40;5.40;78.50
61021;DHT22;66055;43.496;3.710;2022-12-18T10:59:08;5.40;78.40
61021;DHT22;66055;43.496;3.710;2022-12-18T11:01:55;5.40;76.60
61021;DHT22;66055;43.496;3.710;2022-12-18T11:04:31;5.40;78.40
61021;DHT22;66055;43.496;3.710;2022-12-18T11:07:07;5.40;78.90
61021;DHT22;66055;43.496;3.710;2022-12-18T11:09:37;5.40;79.20
61021;DHT22;66055;43.496;3.710;2022-12-18T11:12:17;5.40;78.50
61021;DHT22;66055;43.496;3.710;2022-12-18T11:14:45;5.40;79.70
61021;DHT22;66055;43.496;3.710;2022-12-18T11:17:30;5.30;79.00
61021;DHT22;66055;43.496;3.710;2022-12-18T11:22:56;5.50;81.00
61021;DHT22;66055;43.496;3.710;2022-12-18T11:25:22;5.40;80.30
61021;DHT22;66055;43.496;3.710;2022-12-18T11:27:52;5.50;79.90
61021;DHT22;66055;43.496;3.710;2022-12-18T11:30:22;5.60;80.60
61021;DHT22;66055;43.496;3.710;2022-12-18T11:33:05;5.60;79.20
61021;DHT22;66055;43.496;3.710;2022-12-18T11:35:34;5.60;80.60
61021;DHT22;66055;43.496;3.710;2022-12-18T11:38:17;5.70;80.60
61021;DHT22;66055;43.496;3.710;2022-12-18T11:40:50;5.80;80.10
61021;DHT22;66055;43.496;3.710;2022-12-18T11:43:27;5.90;79.70
61021;DHT22;66055;43.496;3.710;2022-12-18T11:46:09;5.90;79.20
61021;DHT22;66055;43.496;3.710;2022-12-18T11:48:57;6.00;79.40
61021;DHT22;66055;43.496;3.710;2022-12-18T11:51:47;6.10;79.90
61021;DHT22;66055;43.496;3.710;2022-12-18T11:54:15;6.10;80.60
61021;DHT22;66055;43.496;3.710;2022-12-18T11:57:17;6.10;80.80
61021;DHT22;66055;43.496;3.710;2022-12-18T12:05:41;6.10;79.60
61021;DHT22;66055;43.496;3.710;2022-12-18T12:09:12;6.10;79.70
61021;DHT22;66055;43.496;3.710;2022-12-18T12:15:03;6.20;81.00
61021;DHT22;66055;43.496;3.710;2022-12-18T12:17:42;6.20;81.40
61021;DHT22;66055;43.496;3.710;2022-12-18T12:20:42;6.20;81.10
61021;DHT22;66055;43.496;3.710;2022-12-18T12:23:19;6.20;81.60
61021;DHT22;66055;43.496;3.710;2022-12-18T12:26:03;6.30;80.80
61021;DHT22;66055;43.496;3.710;2022-12-18T12:34:23;6.40;81.30
61021;DHT22;66055;43.496;3.710;2022-12-18T12:36:59;6.40;81.20
61021;DHT22;66055;43.496;3.710;2022-12-18T12:39:40;6.40;81.50
61021;DHT22;66055;43.496;3.710;2022-12-18T12:42:20;6.40;80.90
61021;DHT22;66055;43.496;3.710;2022-12-18T12:45:16;6.50;80.70
61021;DHT22;66055;43.496;3.710;2022-12-18T12:47:45;6.50;81.80
61021;DHT22;66055;43.496;3.710;2022-12-18T12:50:15;6.50;81.40
61021;DHT22;66055;43.496;3.710;2022-12-18T12:52:55;6.50;81.20
61021;DHT22;66055;43.496;3.710;2022-12-18T12:55:25;6.50;80.90
61021;DHT22;66055;43.496;3.710;2022-12-18T13:06:57;6.50;81.70
61021;DHT22;66055;43.496;3.710;2022-12-18T13:09:24;6.60;81.80
61021;DHT22;66055;43.496;3.710;2022-12-18T13:11:49;6.60;81.80
61021;DHT22;66055;43.496;3.710;2022-12-18T13:14:39;6.70;81.80
61021;DHT22;66055;43.496;3.710;2022-12-18T13:19:43;6.70;82.10
61021;DHT22;66055;43.496;3.710;2022-12-18T13:22:45;6.80;81.60
61021;DHT22;66055;43.496;3.710;2022-12-18T13:25:47;6.80;81.80
61021;DHT22;66055;43.496;3.710;2022-12-18T13:28:18;6.80;82.60
61021;DHT22;66055;43.496;3.710;2022-12-18T13:30:50;6.90;82.60
61021;DHT22;66055;43.496;3.710;2022-12-18T13:38:33;7.00;82.50
61021;DHT22;66055;43.496;3.710;2022-12-18T13:41:02;7.00;82.70
61021;DHT22;66055;43.496;3.710;2022-12-18T13:43:33;7.00;82.90
61021;DHT22;66055;43.496;3.710;2022-12-18T13:51:49;7.20;81.60
61021;DHT22;66055;43.496;3.710;2022-12-18T13:54:39;7.30;81.40
61021;DHT22;66055;43.496;3.710;2022-12-18T13:57:12;7.30;81.90
61021;DHT22;66055;43.496;3.710;2022-12-18T13:59:48;7.30;82.10
61021;DHT22;66055;43.496;3.710;2022-12-18T14:02:22;7.30;82.00
61021;DHT22;66055;43.496;3.710;2022-12-18T14:04:48;7.40;82.00
61021;DHT22;66055;43.496;3.710;2022-12-18T14:07:25;7.50;81.70
61021;DHT22;66055;43.496;3.710;2022-12-18T14:09:59;7.50;82.30
61021;DHT22;66055;43.496;3.710;2022-12-18T14:12:33;7.50;82.10
61021;DHT22;66055;43.496;3.710;2022-12-18T14:18:02;7.50;82.60
61021;DHT22;66055;43.496;3.710;2022-12-18T14:20:31;7.40;82.90
61021;DHT22;66055;43.496;3.710;2022-12-18T14:22:58;7.40;82.70
61021;DHT22;66055;43.496;3.710;2022-12-18T14:25:28;7.40;83.20
61021;DHT22;66055;43.496;3.710;2022-12-18T14:30:35;7.50;83.00
61021;DHT22;66055;43.496;3.710;2022-12-18T14:33:20;7.50;83.00
61021;DHT22;66055;43.496;3.710;2022-12-18T14:36:01;7.50;83.20
61021;DHT22;66055;43.496;3.710;2022-12-18T14:38:38;7.50;83.20
61021;DHT22;66055;43.496;3.710;2022-12-18T14:41:13;7.50;83.70
61021;DHT22;66055;43.496;3.710;2022-12-18T14:43:41;7.50;83.80
61021;DHT22;66055;43.496;3.710;2022-12-18T14:49:03;7.50;84.10
61021;DHT22;66055;43.496;3.710;2022-12-18T14:51:31;7.50;84.20
61021;DHT22;66055;43.496;3.710;2022-12-18T14:54:00;7.50;84.20
61021;DHT22;66055;43.496;3.710;2022-12-18T14:56:29;7.50;84.20
61021;DHT22;66055;43.496;3.710;2022-12-18T14:59:24;7.50;84.20
61021;DHT22;66055;43.496;3.710;2022-12-18T15:04:37;7.60;84.20
61021;DHT22;66055;43.496;3.710;2022-12-18T15:09:37;7.60;84.30
61021;DHT22;66055;43.496;3.710;2022-12-18T15:12:04;7.50;84.70
61021;DHT22;66055;43.496;3.710;2022-12-18T15:16:57;7.50;84.90
61021;DHT22;66055;43.496;3.710;2022-12-18T15:19:39;7.60;84.50
61021;DHT22;66055;43.496;3.710;2022-12-18T15:24:46;7.60;84.40
61021;DHT22;66055;43.496;3.710;2022-12-18T15:27:33;7.70;84.20
61021;DHT22;66055;43.496;3.710;2022-12-18T15:32:39;7.70;84.30
61021;DHT22;66055;43.496;3.710;2022-12-18T15:37:40;7.60;84.60
61021;DHT22;66055;43.496;3.710;2022-12-18T15:40:06;7.60;84.70
61021;DHT22;66055;43.496;3.710;2022-12-18T15:42:33;7.60;85.10
61021;DHT22;66055;43.496;3.710;2022-12-18T15:45:17;7.50;85.30
61021;DHT22;66055;43.496;3.710;2022-12-18T15:47:43;7.50;85.50
61021;DHT22;66055;43.496;3.710;2022-12-18T15:50:09;7.40;85.80
61021;DHT22;66055;43.496;3.710;2022-12-18T15:52:44;7.40;85.90
61021;DHT22;66055;43.496;3.710;2022-12-18T15:55:15;7.50;85.90
61021;DHT22;66055;43.496;3.710;2022-12-18T15:58:00;7.40;85.90
61021;DHT22;66055;43.496;3.710;2022-12-18T16:00:26;7.40;86.10
61021;DHT22;66055;43.496;3.710;2022-12-18T16:02:51;7.40;86.10
61021;DHT22;66055;43.496;3.710;2022-12-18T16:05:19;7.40;86.10
61021;DHT22;66055;43.496;3.710;2022-12-18T16:07:45;7.50;86.10
61021;DHT22;66055;43.496;3.710;2022-12-18T16:10:12;7.50;85.90
61021;DHT22;66055;43.496;3.710;2022-12-18T16:12:37;7.50;86.10
61021;DHT22;66055;43.496;3.710;2022-12-18T16:15:05;7.50;86.30
61021;DHT22;66055;43.496;3.710;2022-12-18T16:17:31;7.40;86.40
61021;DHT22;66055;43.496;3.710;2022-12-18T16:19:57;7.40;86.70
61021;DHT22;66055;43.496;3.710;2022-12-18T16:22:28;7.40;86.90
61021;DHT22;66055;43.496;3.710;2022-12-18T16:24:55;7.40;87.00
61021;DHT22;66055;43.496;3.710;2022-12-18T16:27:23;7.40;87.10
61021;DHT22;66055;43.496;3.710;2022-12-18T16:29:49;7.40;87.30
61021;DHT22;66055;43.496;3.710;2022-12-18T16:32:17;7.40;87.40
61021;DHT22;66055;43.496;3.710;2022-12-18T16:34:43;7.40;87.40
61021;DHT22;66055;43.496;3.710;2022-12-18T16:37:10;7.50;87.60
61021;DHT22;66055;43.496;3.710;2022-12-18T16:39:38;7.50;87.50
61021;DHT22;66055;43.496;3.710;2022-12-18T16:42:06;7.60;87.60
61021;DHT22;66055;43.496;3.710;2022-12-18T16:44:34;7.70;87.70
61021;DHT22;66055;43.496;3.710;2022-12-18T16:47:00;7.80;87.80
61021;DHT22;66055;43.496;3.710;2022-12-18T16:49:28;7.90;87.70
61021;DHT22;66055;43.496;3.710;2022-12-18T16:51:54;8.00;87.40
61021;DHT22;66055;43.496;3.710;2022-12-18T16:54:20;8.00;87.40
61021;DHT22;66055;43.496;3.710;2022-12-18T16:56:46;8.00;87.30
61021;DHT22;66055;43.496;3.710;2022-12-18T16:59:14;8.00;87.10
61021;DHT22;66055;43.496;3.710;2022-12-18T17:01:39;7.90;87.00
61021;DHT22;66055;43.496;3.710;2022-12-18T17:04:06;7.80;87.20
61021;DHT22;66055;43.496;3.710;2022-12-18T17:06:34;7.80;87.50
61021;DHT22;66055;43.496;3.710;2022-12-18T17:09:04;7.90;87.80
61021;DHT22;66055;43.496;3.710;2022-12-18T17:11:32;7.90;87.80
61021;DHT22;66055;43.496;3.710;2022-12-18T17:13:58;7.90;87.80
61021;DHT22;66055;43.496;3.710;2022-12-18T17:16:25;8.00;88.00
61021;DHT22;66055;43.496;3.710;2022-12-18T17:18:53;8.30;88.20
61021;DHT22;66055;43.496;3.710;2022-12-18T17:21:19;8.50;88.10
61021;DHT22;66055;43.496;3.710;2022-12-18T17:23:45;8.70;87.60
61021;DHT22;66055;43.496;3.710;2022-12-18T17:26:11;8.80;87.60
61021;DHT22;66055;43.496;3.710;2022-12-18T17:28:38;8.90;87.10
61021;DHT22;66055;43.496;3.710;2022-12-18T17:31:21;9.10;87.10
61021;DHT22;66055;43.496;3.710;2022-12-18T17:33:47;9.20;86.30
61021;DHT22;66055;43.496;3.710;2022-12-18T17:36:14;9.20;86.50
61021;DHT22;66055;43.496;3.710;2022-12-18T17:38:42;9.40;86.60
61021;DHT22;66055;43.496;3.710;2022-12-18T17:41:09;9.30;86.50
61021;DHT22;66055;43.496;3.710;2022-12-18T17:43:35;9.60;86.80
61021;DHT22;66055;43.496;3.710;2022-12-18T17:46:02;9.70;85.90
61021;DHT22;66055;43.496;3.710;2022-12-18T17:48:29;9.60;85.50
61021;DHT22;66055;43.496;3.710;2022-12-18T17:50:54;9.70;85.60
61021;DHT22;66055;43.496;3.710;2022-12-18T17:53:22;9.60;85.60
61021;DHT22;66055;43.496;3.710;2022-12-18T17:55:54;9.70;86.20
61021;DHT22;66055;43.496;3.710;2022-12-18T17:58:20;9.80;85.40